Time;durP1;ratioP1;P1;durP2;ratioP2;P2;SDS_P1;SDS_P2;PMS_P1;PMS_P2;Temp;Humidity;BMP_temperature;BMP_pressure;BME280_temperature;BME280_humidity;BME280_pressure;Samples;Min_cycle;Max_cycle;Signal;HPM_P1;HPM_P2
2023/10/07 00:02:50;;;;;;;11.88;6.63;;;;;;;;;;6232383;28;20041;-83
2023/10/07 00:06:00;;;;;;;10.30;6.43;;;;;;;;;;6222410;28;20042;-83
2023/10/07 00:09:03;;;;;;;11.48;6.43;;;;;;;;;;6220259;28;20124;-84
2023/10/07 00:12:06;;;;;;;12.50;6.45;;;;;;;;;;6232814;28;20448;-82
2023/10/07 00:15:11;;;;;;;9.65;6.25;;;;;;;;;;6238078;28;20061;-82
2023/10/07 00:18:14;;;;;;;12.35;6.05;;;;;;;;;;6202931;28;20042;-80
2023/10/07 00:21:23;;;;;;;9.63;5.73;;;;;;;;;;6221327;28;20049;-84
2023/10/07 00:24:35;;;;;;;11.70;6.05;;;;;;;;;;6219580;28;20050;-81
2023/10/07 00:27:39;;;;;;;10.35;6.20;;;;;;;;;;6215933;28;20042;-80
2023/10/07 00:30:43;;;;;;;13.55;6.20;;;;;;;;;;6196503;28;20048;-83
2023/10/07 00:34:02;;;;;;;10.27;6.30;;;;;;;;;;6230378;28;20396;-82
2023/10/07 00:37:05;;;;;;;13.00;6.00;;;;;;;;;;6230368;28;20100;-81
2023/10/07 00:43:30;;;;;;;12.63;6.15;;;;;;;;;;6228021;28;19961;-83
2023/10/07 00:46:34;;;;;;;15.95;7.20;;;;;;;;;;6207577;28;20050;-80
2023/10/07 00:55:55;;;;;;;11.68;6.60;;;;;;;;;;6239709;28;20046;-81
2023/10/07 00:58:56;;;;;;;18.08;7.50;;;;;;;;;;6214481;28;20061;-80
2023/10/07 01:01:59;;;;;;;11.60;6.38;;;;;;;;;;6221224;28;20053;-83
2023/10/07 01:05:06;;;;;;;13.68;7.47;;;;;;;;;;6213519;28;20125;-83
2023/10/07 01:08:09;;;;;;;14.65;7.63;;;;;;;;;;6203537;28;20404;-80
2023/10/07 01:14:20;;;;;;;15.63;7.32;;;;;;;;;;6231955;28;20104;-81
2023/10/07 01:17:30;;;;;;;12.57;6.65;;;;;;;;;;6211440;28;20450;-83
2023/10/07 01:20:38;;;;;;;13.13;6.30;;;;;;;;;;6228410;28;20535;-81
2023/10/07 01:23:40;;;;;;;12.77;6.75;;;;;;;;;;6211785;28;20049;-80
2023/10/07 01:26:44;;;;;;;12.77;7.00;;;;;;;;;;6210188;28;20053;-80
2023/10/07 01:29:49;;;;;;;13.70;6.70;;;;;;;;;;6225594;28;20049;-80
2023/10/07 01:33:01;;;;;;;10.40;6.20;;;;;;;;;;6210537;28;20125;-83
2023/10/07 01:36:10;;;;;;;10.95;5.93;;;;;;;;;;6244090;28;20510;-81
2023/10/07 01:39:12;;;;;;;12.15;6.28;;;;;;;;;;6202995;28;20045;-82
2023/10/07 01:42:20;;;;;;;13.52;6.20;;;;;;;;;;6226570;28;20050;-83
2023/10/07 01:45:22;;;;;;;10.63;5.90;;;;;;;;;;6195183;28;20056;-79
2023/10/07 01:48:24;;;;;;;10.05;6.30;;;;;;;;;;6209164;28;20056;-83
2023/10/07 01:51:27;;;;;;;10.45;6.38;;;;;;;;;;6210043;28;20048;-83
2023/10/07 01:54:33;;;;;;;12.45;6.95;;;;;;;;;;6212938;28;20559;-83
2023/10/07 01:57:35;;;;;;;13.02;7.25;;;;;;;;;;6207277;28;20056;-83
2023/10/07 02:00:44;;;;;;;11.02;7.10;;;;;;;;;;6225296;28;20046;-83
2023/10/07 02:03:46;;;;;;;12.18;6.80;;;;;;;;;;6211813;28;20120;-82
2023/10/07 02:06:51;;;;;;;11.27;7.07;;;;;;;;;;6223886;28;20483;-83
2023/10/07 02:09:54;;;;;;;13.02;6.93;;;;;;;;;;6223260;28;20049;-83
2023/10/07 02:12:56;;;;;;;13.75;7.10;;;;;;;;;;6207983;28;20459;-83
2023/10/07 02:15:58;;;;;;;16.75;7.22;;;;;;;;;;6226090;28;20463;-81
2023/10/07 02:19:00;;;;;;;11.85;6.60;;;;;;;;;;6225569;28;20048;-82
2023/10/07 02:22:03;;;;;;;11.90;6.30;;;;;;;;;;6206730;28;20048;-82
2023/10/07 02:25:07;;;;;;;10.93;5.47;;;;;;;;;;6213422;28;20042;-83
2023/10/07 02:28:09;;;;;;;;;;;;;;;;;;6214156;28;20396;-83
2023/10/07 02:31:15;;;;;;;8.70;4.53;;;;;;;;;;6210343;28;19929;-83
2023/10/07 02:34:29;;;;;;;8.85;5.13;;;;;;;;;;6211399;28;20389;-81
2023/10/07 02:37:38;;;;;;;9.88;5.00;;;;;;;;;;6216859;28;20132;-83
2023/10/07 02:40:49;;;;;;;8.85;4.65;;;;;;;;;;6227487;28;20068;-81
2023/10/07 02:43:51;;;;;;;8.77;4.85;;;;;;;;;;6228138;28;20056;-79
2023/10/07 02:46:54;;;;;;;7.78;4.30;;;;;;;;;;6222754;28;20042;-79
2023/10/07 02:50:00;;;;;;;10.82;5.35;;;;;;;;;;6212284;28;20034;-83
2023/10/07 02:53:10;;;;;;;9.13;4.68;;;;;;;;;;6212681;28;20050;-81
2023/10/07 02:56:18;;;;;;;10.05;5.03;;;;;;;;;;6214640;28;20489;-82
2023/10/07 02:59:26;;;;;;;9.10;4.97;;;;;;;;;;6203342;28;20050;-81
2023/10/07 03:02:46;;;;;;;10.13;5.10;;;;;;;;;;6225359;28;20053;-83
2023/10/07 03:06:06;;;;;;;12.63;5.13;;;;;;;;;;6198103;28;20194;-82
2023/10/07 03:09:18;;;;;;;10.23;5.25;;;;;;;;;;6229432;28;20078;-80
2023/10/07 03:12:30;;;;;;;9.30;4.90;;;;;;;;;;6209747;28;20265;-81
2023/10/07 03:18:38;;;;;;;9.52;4.72;;;;;;;;;;6245142;28;20049;-80
2023/10/07 03:24:41;;;;;;;12.40;6.22;;;;;;;;;;6230605;28;20050;-82
2023/10/07 03:27:49;;;;;;;13.38;5.38;;;;;;;;;;6230507;28;20045;-79
2023/10/07 03:30:52;;;;;;;17.23;6.97;;;;;;;;;;6187597;28;20042;-81
2023/10/07 03:33:58;;;;;;;16.43;8.33;;;;;;;;;;6211994;28;20082;-84
2023/10/07 03:40:25;;;;;;;13.38;6.55;;;;;;;;;;6218732;28;20107;-80
2023/10/07 03:43:27;;;;;;;13.73;6.20;;;;;;;;;;6220244;28;20049;-82
2023/10/07 03:46:29;;;;;;;11.82;5.53;;;;;;;;;;6217045;28;20191;-83
2023/10/07 03:49:33;;;;;;;15.85;5.80;;;;;;;;;;6208746;28;20102;-83
2023/10/07 03:52:37;;;;;;;11.77;5.15;;;;;;;;;;6214843;28;20057;-81
2023/10/07 03:55:43;;;;;;;10.50;5.13;;;;;;;;;;6218298;28;20050;-81
2023/10/07 03:58:45;;;;;;;12.73;4.53;;;;;;;;;;6234750;28;20053;-83
2023/10/07 04:01:52;;;;;;;12.88;5.13;;;;;;;;;;6216207;28;20541;-83
2023/10/07 04:05:00;;;;;;;7.97;4.63;;;;;;;;;;6215210;28;20041;-84
2023/10/07 04:08:03;;;;;;;11.02;4.68;;;;;;;;;;6200887;28;20136;-81
2023/10/07 04:11:13;;;;;;;11.20;6.13;;;;;;;;;;6214063;28;20049;-83
2023/10/07 04:14:19;;;;;;;12.93;4.55;;;;;;;;;;6219113;28;20132;-81
2023/10/07 04:17:23;;;;;;;10.13;5.03;;;;;;;;;;6214636;28;20049;-81
2023/10/07 04:20:42;;;;;;;10.40;5.53;;;;;;;;;;6219742;28;20122;-82
2023/10/07 04:23:45;;;;;;;10.38;5.45;;;;;;;;;;6228140;28;20153;-83
2023/10/07 04:27:02;;;;;;;13.43;5.70;;;;;;;;;;6231601;28;20042;-82
2023/10/07 04:30:09;;;;;;;13.05;5.55;;;;;;;;;;6216920;28;20042;-80
2023/10/07 04:33:11;;;;;;;10.30;5.28;;;;;;;;;;6216631;28;20046;-80
2023/10/07 04:36:14;;;;;;;9.82;5.10;;;;;;;;;;6231152;28;20046;-83
2023/10/07 04:39:18;;;;;;;9.43;4.93;;;;;;;;;;6210803;28;20048;-82
2023/10/07 04:42:22;;;;;;;10.02;5.13;;;;;;;;;;6209502;28;20058;-81
2023/10/07 04:45:37;;;;;;;10.45;5.28;;;;;;;;;;6215304;28;20054;-82
2023/10/07 04:48:55;;;;;;;9.23;4.55;;;;;;;;;;6228899;28;20038;-83
2023/10/07 04:52:03;;;;;;;9.63;4.32;;;;;;;;;;6213918;28;20042;-81
2023/10/07 04:55:13;;;;;;;9.15;4.88;;;;;;;;;;6224899;28;20049;-83
2023/10/07 04:58:17;;;;;;;9.15;4.97;;;;;;;;;;6209648;28;20132;-83
2023/10/07 05:01:33;;;;;;;13.68;4.88;;;;;;;;;;6215791;28;20041;-83
2023/10/07 05:04:35;;;;;;;10.52;4.95;;;;;;;;;;6214492;28;20132;-83
2023/10/07 05:07:38;;;;;;;9.98;4.35;;;;;;;;;;6212618;28;20046;-83
2023/10/07 05:10:50;;;;;;;9.27;4.55;;;;;;;;;;6223170;28;20046;-81
2023/10/07 05:13:52;;;;;;;13.55;4.63;;;;;;;;;;6231832;28;20050;-82
2023/10/07 05:16:58;;;;;;;10.30;4.07;;;;;;;;;;6230752;28;20042;-82
2023/10/07 05:20:00;;;;;;;7.78;4.53;;;;;;;;;;6230378;28;20045;-81
2023/10/07 05:23:02;;;;;;;11.00;4.53;;;;;;;;;;6229879;28;20060;-84
2023/10/07 05:26:08;;;;;;;10.13;5.22;;;;;;;;;;6211735;28;20049;-82
2023/10/07 05:29:12;;;;;;;12.18;5.03;;;;;;;;;;6212704;28;20049;-83
2023/10/07 05:32:17;;;;;;;10.18;4.90;;;;;;;;;;6218561;28;20057;-83
2023/10/07 05:35:19;;;;;;;10.15;4.95;;;;;;;;;;6213532;28;20037;-81
2023/10/07 05:38:21;;;;;;;10.13;4.63;;;;;;;;;;6211965;28;20065;-83
2023/10/07 05:41:25;;;;;;;11.95;5.07;;;;;;;;;;6214324;28;20046;-81
2023/10/07 05:44:28;;;;;;;9.63;4.55;;;;;;;;;;6226868;28;20089;-83
2023/10/07 05:47:32;;;;;;;7.72;4.80;;;;;;;;;;6193954;28;20443;-83
2023/10/07 05:50:34;;;;;;;8.63;5.18;;;;;;;;;;6206743;28;20093;-81
2023/10/07 05:53:45;;;;;;;9.63;5.18;;;;;;;;;;6203646;28;20408;-82
2023/10/07 05:56:50;;;;;;;13.30;5.45;;;;;;;;;;6210082;28;20064;-83
2023/10/07 05:59:51;;;;;;;11.75;5.15;;;;;;;;;;6225385;28;20042;-81
2023/10/07 06:02:55;;;;;;;9.02;4.40;;;;;;;;;;6238950;28;20651;-81
2023/10/07 06:05:57;;;;;;;13.55;5.75;;;;;;;;;;6197106;28;20045;-82
2023/10/07 06:09:02;;;;;;;8.88;4.72;;;;;;;;;;6212390;28;20500;-82
2023/10/07 06:12:07;;;;;;;11.43;4.55;;;;;;;;;;6207908;28;20049;-81
2023/10/07 06:15:10;;;;;;;8.60;4.20;;;;;;;;;;6207152;28;20076;-82
2023/10/07 06:18:12;;;;;;;10.75;4.40;;;;;;;;;;6218481;28;20057;-80
2023/10/07 06:21:27;;;;;;;11.15;4.60;;;;;;;;;;6207214;28;20162;-81
2023/10/07 06:24:31;;;;;;;9.93;4.47;;;;;;;;;;6201249;28;20049;-82
2023/10/07 06:27:36;;;;;;;8.80;4.47;;;;;;;;;;6220785;28;20048;-81
2023/10/07 06:30:42;;;;;;;10.88;4.25;;;;;;;;;;6204084;28;20617;-81
2023/10/07 06:34:32;;;;;;;9.75;4.70;;;;;;;;;;6241502;28;20131;-81
2023/10/07 06:37:07;;;;;;;11.65;4.57;;;;;;;;;;6196476;28;20061;-82
2023/10/07 06:40:24;;;;;;;8.85;4.47;;;;;;;;;;6223987;28;20065;-81
2023/10/07 06:43:25;;;;;;;10.60;4.43;;;;;;;;;;6203410;28;20053;-81
2023/10/07 06:46:45;;;;;;;10.55;4.43;;;;;;;;;;6220090;28;20048;-82
2023/10/07 06:49:48;;;;;;;10.85;5.00;;;;;;;;;;6224113;28;20053;-79
2023/10/07 06:52:49;;;;;;;7.75;4.25;;;;;;;;;;6220128;28;20041;-80
2023/10/07 06:55:52;;;;;;;12.43;4.90;;;;;;;;;;6206593;28;20062;-80
2023/10/07 06:58:54;;;;;;;9.95;5.10;;;;;;;;;;6210733;28;20606;-83
2023/10/07 07:01:57;;;;;;;13.05;4.55;;;;;;;;;;6203799;28;20747;-82
2023/10/07 07:04:59;;;;;;;8.60;4.32;;;;;;;;;;6207898;28;20049;-81
2023/10/07 07:08:03;;;;;;;8.10;4.50;;;;;;;;;;6220641;28;20041;-82
2023/10/07 07:11:10;;;;;;;9.52;4.90;;;;;;;;;;6188520;28;20175;-83
2023/10/07 07:14:12;;;;;;;11.23;4.68;;;;;;;;;;6225094;28;20279;-82
2023/10/07 07:17:29;;;;;;;11.87;4.80;;;;;;;;;;6222723;28;20042;-81
2023/10/07 07:20:48;;;;;;;11.60;5.05;;;;;;;;;;6211406;28;20450;-83
2023/10/07 07:23:51;;;;;;;10.52;4.68;;;;;;;;;;6214954;28;20058;-78
2023/10/07 07:26:53;;;;;;;11.00;4.00;;;;;;;;;;6229694;28;20057;-80
2023/10/07 07:29:54;;;;;;;9.93;4.90;;;;;;;;;;6226601;28;20419;-81
2023/10/07 07:33:06;;;;;;;8.35;4.20;;;;;;;;;;6226922;28;20049;-80
2023/10/07 07:39:32;;;;;;;8.85;4.50;;;;;;;;;;6229740;28;20049;-81
2023/10/07 07:42:34;;;;;;;12.48;4.50;;;;;;;;;;6229146;28;20038;-78
2023/10/07 07:45:35;;;;;;;12.50;5.10;;;;;;;;;;6230919;28;20049;-79
2023/10/07 07:48:38;;;;;;;9.65;4.55;;;;;;;;;;6252391;28;20797;-81
2023/10/07 07:51:41;;;;;;;7.50;3.87;;;;;;;;;;6218082;28;20064;-82
2023/10/07 07:54:43;;;;;;;8.57;4.15;;;;;;;;;;6214936;28;20048;-81
2023/10/07 07:57:44;;;;;;;8.38;3.88;;;;;;;;;;6213320;28;20827;-79
2023/10/07 08:00:58;;;;;;;6.43;3.63;;;;;;;;;;6232429;28;20050;-81
2023/10/07 08:04:09;;;;;;;9.25;4.63;;;;;;;;;;6208877;28;20165;-80
2023/10/07 08:10:20;;;;;;;6.85;3.72;;;;;;;;;;6236303;28;20507;-80
2023/10/07 08:13:23;;;;;;;7.70;4.03;;;;;;;;;;6201471;28;20037;-80
2023/10/07 08:16:25;;;;;;;8.73;4.05;;;;;;;;;;6213295;28;20042;-80
2023/10/07 08:19:30;;;;;;;8.35;3.85;;;;;;;;;;6216482;28;20650;-78
2023/10/07 08:22:33;;;;;;;7.82;3.95;;;;;;;;;;6214338;28;20046;-80
2023/10/07 08:25:45;;;;;;;8.38;3.88;;;;;;;;;;6231307;28;20050;-79
2023/10/07 08:32:29;;;;;;;6.72;3.63;;;;;;;;;;6216099;28;20052;-84
2023/10/07 08:35:26;;;;;;;8.95;4.13;;;;;;;;;;6226701;28;20139;-83
2023/10/07 08:38:38;;;;;;;9.00;4.10;;;;;;;;;;6231182;28;20050;-83
2023/10/07 08:41:47;;;;;;;7.75;3.35;;;;;;;;;;6213673;28;20543;-84
2023/10/07 08:44:51;;;;;;;5.45;3.30;;;;;;;;;;6215188;28;20125;-83
2023/10/07 08:48:08;;;;;;;10.35;4.68;;;;;;;;;;6210832;28;20085;-84
2023/10/07 08:51:14;;;;;;;8.18;4.22;;;;;;;;;;6225961;28;20044;-84
2023/10/07 08:54:25;;;;;;;8.52;3.67;;;;;;;;;;6213380;28;20500;-82
2023/10/07 08:57:27;;;;;;;9.15;3.53;;;;;;;;;;6224309;28;20042;-84
2023/10/07 09:00:32;;;;;;;5.50;3.55;;;;;;;;;;6211850;28;20038;-81
2023/10/07 09:03:39;;;;;;;5.93;3.15;;;;;;;;;;6213664;28;20738;-82
2023/10/07 09:06:50;;;;;;;6.13;3.05;;;;;;;;;;6212594;28;20060;-83
2023/10/07 09:09:53;;;;;;;7.18;3.10;;;;;;;;;;6206891;28;20057;-84
2023/10/07 09:12:57;;;;;;;7.85;3.35;;;;;;;;;;6213623;28;20042;-84
2023/10/07 09:15:59;;;;;;;8.18;3.40;;;;;;;;;;6207310;28;20160;-83
2023/10/07 09:19:10;;;;;;;5.88;3.17;;;;;;;;;;6211736;28;20056;-83
2023/10/07 09:22:15;;;;;;;8.30;3.75;;;;;;;;;;6230764;28;20042;-84
2023/10/07 09:25:31;;;;;;;6.40;3.58;;;;;;;;;;6218485;28;20049;-83
2023/10/07 09:28:38;;;;;;;6.07;3.47;;;;;;;;;;6216767;28;20046;-84
2023/10/07 09:31:43;;;;;;;8.20;3.47;;;;;;;;;;6212422;28;20046;-82
2023/10/07 09:34:47;;;;;;;6.25;3.20;;;;;;;;;;6215676;28;20046;-83
2023/10/07 09:37:54;;;;;;;8.75;3.88;;;;;;;;;;6221915;28;20128;-84
2023/10/07 09:44:00;;;;;;;7.68;3.40;;;;;;;;;;6216553;28;20135;-85
2023/10/07 09:47:12;;;;;;;6.28;3.10;;;;;;;;;;6214717;28;20053;-82
2023/10/07 09:53:55;;;;;;;6.15;3.47;;;;;;;;;;6213358;28;20050;-85
2023/10/07 09:57:19;;;;;;;7.22;3.15;;;;;;;;;;6228407;28;20046;-83
2023/10/07 10:00:38;;;;;;;7.22;3.28;;;;;;;;;;6213728;28;20177;-83
2023/10/07 10:04:05;;;;;;;8.02;3.47;;;;;;;;;;6213055;28;20101;-83
2023/10/07 10:07:21;;;;;;;6.63;4.10;;;;;;;;;;6221906;28;20045;-84
2023/10/07 10:10:32;;;;;;;5.65;3.25;;;;;;;;;;6222451;28;20129;-84
2023/10/07 10:16:52;;;;;;;5.15;3.45;;;;;;;;;;6213160;28;20092;-84
2023/10/07 10:20:00;;;;;;;5.22;3.20;;;;;;;;;;6213117;28;20038;-85
2023/10/07 10:23:07;;;;;;;5.80;3.08;;;;;;;;;;6211944;28;20088;-84
2023/10/07 10:26:14;;;;;;;6.20;3.60;;;;;;;;;;6204781;28;20065;-84
2023/10/07 10:29:25;;;;;;;6.70;3.63;;;;;;;;;;6212244;28;20045;-84
2023/10/07 10:32:36;;;;;;;6.45;3.33;;;;;;;;;;6222945;28;20042;-84
2023/10/07 10:35:40;;;;;;;7.50;3.22;;;;;;;;;;6210033;28;20045;-85
2023/10/07 10:38:45;;;;;;;6.35;3.45;;;;;;;;;;6227992;28;20630;-86
2023/10/07 10:41:48;;;;;;;6.22;3.30;;;;;;;;;;6226159;28;20053;-86
2023/10/07 10:44:52;;;;;;;;;;;;;;;;;;6212674;28;20050;-85
2023/10/07 10:47:56;;;;;;;6.28;2.80;;;;;;;;;;6224724;28;19928;-84
2023/10/07 10:50:58;;;;;;;4.47;2.22;;;;;;;;;;6228933;28;20038;-85
2023/10/07 10:53:59;;;;;;;6.30;2.53;;;;;;;;;;6215507;28;20046;-83
2023/10/07 10:57:05;;;;;;;4.63;2.47;;;;;;;;;;6233331;28;20452;-85
2023/10/07 11:00:22;;;;;;;4.30;2.40;;;;;;;;;;6213979;28;20061;-85
2023/10/07 11:03:23;;;;;;;4.30;1.95;;;;;;;;;;6226173;28;20092;-84
2023/10/07 11:06:28;;;;;;;3.70;2.13;;;;;;;;;;6213283;28;20539;-86
2023/10/07 11:09:36;;;;;;;5.82;2.33;;;;;;;;;;6228738;28;20448;-85
2023/10/07 11:12:40;;;;;;;4.10;2.03;;;;;;;;;;6219171;28;20080;-85
2023/10/07 11:16:10;;;;;;;4.70;2.45;;;;;;;;;;6214498;28;20050;-86
2023/10/07 11:19:16;;;;;;;4.68;2.20;;;;;;;;;;6217348;28;20049;-86
2023/10/07 11:22:22;;;;;;;4.97;2.20;;;;;;;;;;6218135;28;20065;-85
2023/10/07 11:25:27;;;;;;;5.25;2.60;;;;;;;;;;6225912;28;20045;-85
2023/10/07 11:28:33;;;;;;;4.70;2.30;;;;;;;;;;6230118;28;20083;-84
2023/10/07 11:31:37;;;;;;;4.05;2.10;;;;;;;;;;6208636;28;20421;-84
2023/10/07 11:34:40;;;;;;;5.03;1.77;;;;;;;;;;6235761;28;20077;-85
2023/10/07 11:37:58;;;;;;;3.88;2.17;;;;;;;;;;6218143;28;20053;-86
2023/10/07 11:41:01;;;;;;;3.20;2.10;;;;;;;;;;6214575;28;20172;-86
2023/10/07 11:44:03;;;;;;;4.20;2.17;;;;;;;;;;6232331;28;20048;-86
2023/10/07 11:47:11;;;;;;;3.50;2.03;;;;;;;;;;6218959;28;20042;-86
2023/10/07 11:50:16;;;;;;;4.45;1.92;;;;;;;;;;6225249;28;20129;-84
2023/10/07 11:53:19;;;;;;;3.42;1.50;;;;;;;;;;6206691;28;20095;-84
2023/10/07 11:56:22;;;;;;;3.17;1.75;;;;;;;;;;6217620;28;20034;-83
2023/10/07 11:59:23;;;;;;;5.20;1.80;;;;;;;;;;6228439;28;20042;-85
2023/10/07 12:02:25;;;;;;;3.15;1.77;;;;;;;;;;6212839;28;20117;-85
2023/10/07 12:05:29;;;;;;;2.13;1.67;;;;;;;;;;6218737;28;20160;-85
2023/10/07 12:08:34;;;;;;;4.15;1.70;;;;;;;;;;6215716;28;20115;-84
2023/10/07 12:11:37;;;;;;;3.90;1.60;;;;;;;;;;6216527;28;20053;-85
2023/10/07 12:14:39;;;;;;;3.35;1.80;;;;;;;;;;6230480;28;20052;-84
2023/10/07 12:17:44;;;;;;;2.50;1.58;;;;;;;;;;6214897;28;20049;-86
2023/10/07 12:20:46;;;;;;;4.18;1.67;;;;;;;;;;6229386;28;20140;-83
2023/10/07 12:23:47;;;;;;;2.38;1.73;;;;;;;;;;6215600;28;20060;-84
2023/10/07 12:26:50;;;;;;;4.72;1.95;;;;;;;;;;6228578;28;20049;-85
2023/10/07 12:29:52;;;;;;;2.92;1.85;;;;;;;;;;6241457;28;20048;-85
2023/10/07 12:32:54;;;;;;;4.37;1.63;;;;;;;;;;6226444;28;20414;-85
2023/10/07 12:35:55;;;;;;;3.15;1.67;;;;;;;;;;6229173;28;20057;-85
2023/10/07 12:38:57;;;;;;;4.68;2.15;;;;;;;;;;6216986;28;20068;-85
2023/10/07 12:41:59;;;;;;;4.87;1.60;;;;;;;;;;6225276;28;20104;-86
2023/10/07 12:45:01;;;;;;;3.90;1.80;;;;;;;;;;6221337;28;20042;-85
2023/10/07 12:48:04;;;;;;;3.77;1.87;;;;;;;;;;6218476;28;20061;-86
2023/10/07 12:51:06;;;;;;;3.67;1.95;;;;;;;;;;6224717;28;20428;-83
2023/10/07 12:54:09;;;;;;;4.40;1.80;;;;;;;;;;6242257;28;20056;-83
2023/10/07 12:57:15;;;;;;;2.45;1.70;;;;;;;;;;6251947;28;20490;-84
2023/10/07 13:00:28;;;;;;;3.30;1.60;;;;;;;;;;6226768;28;20042;-84
2023/10/07 13:03:30;;;;;;;;;;;;;;;;;;6229282;28;20124;-84
2023/10/07 13:06:32;;;;;;;3.83;1.73;;;;;;;;;;6243331;28;19925;-84
2023/10/07 13:09:34;;;;;;;5.20;1.70;;;;;;;;;;6227889;28;20056;-85
2023/10/07 13:12:35;;;;;;;3.05;1.70;;;;;;;;;;6229938;28;20052;-84
2023/10/07 13:15:37;;;;;;;2.75;1.67;;;;;;;;;;6232143;28;20050;-84
2023/10/07 13:18:40;;;;;;;4.90;1.90;;;;;;;;;;6251034;28;20101;-84
2023/10/07 13:21:42;;;;;;;3.67;1.77;;;;;;;;;;6225886;28;20500;-84
2023/10/07 13:24:46;;;;;;;4.70;1.77;;;;;;;;;;6213880;28;20049;-85
2023/10/07 13:27:49;;;;;;;3.63;1.88;;;;;;;;;;6212970;28;20084;-83
2023/10/07 13:30:50;;;;;;;2.67;1.95;;;;;;;;;;6213724;28;20060;-84
2023/10/07 13:33:52;;;;;;;3.83;1.80;;;;;;;;;;6229959;28;20563;-83
2023/10/07 13:36:54;;;;;;;4.67;2.00;;;;;;;;;;6231946;28;20046;-82
2023/10/07 13:39:56;;;;;;;3.97;1.85;;;;;;;;;;6212286;28;20049;-82
2023/10/07 13:42:59;;;;;;;4.00;2.20;;;;;;;;;;6213953;28;20109;-82
2023/10/07 13:46:11;;;;;;;5.65;2.00;;;;;;;;;;6209014;28;20050;-85
2023/10/07 13:49:15;;;;;;;5.22;2.20;;;;;;;;;;6225161;28;20053;-85
2023/10/07 13:52:21;;;;;;;3.78;1.90;;;;;;;;;;6228281;28;20046;-84
2023/10/07 13:58:33;;;;;;;4.18;1.85;;;;;;;;;;6213288;28;20050;-85
2023/10/07 14:01:35;;;;;;;4.47;2.40;;;;;;;;;;6209215;28;20049;-83
2023/10/07 14:04:36;;;;;;;3.97;2.20;;;;;;;;;;6213019;28;20053;-85
2023/10/07 14:07:39;;;;;;;3.25;1.88;;;;;;;;;;6199805;28;20057;-85
2023/10/07 14:10:43;;;;;;;4.55;2.30;;;;;;;;;;6201749;28;20050;-84
2023/10/07 14:13:47;;;;;;;3.65;2.20;;;;;;;;;;6229061;28;20431;-85
2023/10/07 14:16:55;;;;;;;4.30;2.20;;;;;;;;;;6211749;28;20076;-82
2023/10/07 14:19:58;;;;;;;4.05;2.20;;;;;;;;;;6219767;28;20531;-85
2023/10/07 14:23:00;;;;;;;4.00;2.38;;;;;;;;;;6219002;28;20046;-83
2023/10/07 14:26:12;;;;;;;3.57;1.93;;;;;;;;;;6245415;28;20084;-82
2023/10/07 14:29:14;;;;;;;5.17;2.30;;;;;;;;;;6231266;28;20057;-82
2023/10/07 14:32:17;;;;;;;5.20;2.40;;;;;;;;;;6206774;28;20471;-82
2023/10/07 14:35:20;;;;;;;3.28;1.88;;;;;;;;;;6225629;28;20496;-82
2023/10/07 14:38:22;;;;;;;5.55;2.08;;;;;;;;;;6194512;28;20038;-84
2023/10/07 14:41:26;;;;;;;6.65;2.50;;;;;;;;;;6222146;28;20052;-85
2023/10/07 14:44:28;;;;;;;4.43;2.28;;;;;;;;;;6224943;28;20096;-84
2023/10/07 14:47:29;;;;;;;5.40;2.30;;;;;;;;;;6225151;28;20199;-84
2023/10/07 14:50:35;;;;;;;5.93;2.15;;;;;;;;;;6215252;28;20052;-85
2023/10/07 14:53:39;;;;;;;5.18;2.83;;;;;;;;;;6211734;28;20385;-83
2023/10/07 14:56:41;;;;;;;3.70;2.42;;;;;;;;;;6214673;28;20052;-86
2023/10/07 14:59:43;;;;;;;6.80;3.22;;;;;;;;;;6214535;28;20092;-84
2023/10/07 15:02:46;;;;;;;5.38;2.38;;;;;;;;;;6209767;28;20058;-86
2023/10/07 15:05:48;;;;;;;4.10;2.60;;;;;;;;;;6228460;28;20061;-86
2023/10/07 15:08:50;;;;;;;5.95;2.83;;;;;;;;;;6194436;28;20049;-85
2023/10/07 15:11:55;;;;;;;6.15;2.92;;;;;;;;;;6210703;28;20124;-86
2023/10/07 15:14:57;;;;;;;6.00;2.60;;;;;;;;;;6245719;28;20104;-86
2023/10/07 15:17:59;;;;;;;4.13;2.33;;;;;;;;;;6214281;28;20038;-86
2023/10/07 15:21:07;;;;;;;5.30;2.67;;;;;;;;;;6214893;28;20109;-85
2023/10/07 15:24:10;;;;;;;6.72;2.80;;;;;;;;;;6242473;28;20054;-85
2023/10/07 15:27:12;;;;;;;;;;;;;;;;;;6221353;28;20046;-85
2023/10/07 15:30:13;;;;;;;6.45;2.80;;;;;;;;;;6232898;28;19985;-85
2023/10/07 15:33:16;;;;;;;6.47;3.00;;;;;;;;;;6223712;28;20042;-84
2023/10/07 15:36:19;;;;;;;6.72;2.72;;;;;;;;;;6217954;28;20056;-85
2023/10/07 15:39:21;;;;;;;6.45;2.85;;;;;;;;;;6220457;28;20068;-84
2023/10/07 15:42:26;;;;;;;5.45;2.80;;;;;;;;;;6233579;28;20347;-85
2023/10/07 15:45:29;;;;;;;5.97;2.70;;;;;;;;;;6234924;28;20143;-85
2023/10/07 15:48:30;;;;;;;;;;;;;;;;;;6223072;28;20132;-86
2023/10/07 15:51:32;;;;;;;4.97;2.90;;;;;;;;;;6236620;28;19949;-84
2023/10/07 15:54:34;;;;;;;5.63;2.72;;;;;;;;;;6218780;28;20097;-85
2023/10/07 15:57:36;;;;;;;4.10;2.72;;;;;;;;;;6230832;28;20045;-84
2023/10/07 16:00:38;;;;;;;4.72;2.85;;;;;;;;;;6218897;28;20046;-85
2023/10/07 16:03:41;;;;;;;3.43;2.70;;;;;;;;;;6233937;28;20050;-85
2023/10/07 16:06:46;;;;;;;5.53;3.08;;;;;;;;;;6233513;28;20503;-85
2023/10/07 16:09:48;;;;;;;8.10;4.68;;;;;;;;;;6209441;28;20429;-84
2023/10/07 16:12:52;;;;;;;7.20;3.70;;;;;;;;;;6214972;28;20056;-84
2023/10/07 16:16:00;;;;;;;5.32;2.90;;;;;;;;;;6234905;28;20042;-86
2023/10/07 16:19:04;;;;;;;5.53;2.75;;;;;;;;;;6220419;28;20042;-85
2023/10/07 16:22:06;;;;;;;8.60;3.08;;;;;;;;;;6239892;28;20048;-83
2023/10/07 16:25:08;;;;;;;5.90;3.53;;;;;;;;;;6223248;28;20041;-84
2023/10/07 16:28:11;;;;;;;5.20;3.30;;;;;;;;;;6220919;28;20471;-84
2023/10/07 16:31:13;;;;;;;5.22;2.90;;;;;;;;;;6236556;28;20097;-85
2023/10/07 16:34:17;;;;;;;4.43;3.20;;;;;;;;;;6222680;28;20060;-85
2023/10/07 16:37:21;;;;;;;5.35;2.95;;;;;;;;;;6219630;28;20108;-85
2023/10/07 16:40:24;;;;;;;5.28;3.05;;;;;;;;;;6236247;28;20045;-85
2023/10/07 16:43:27;;;;;;;6.85;3.60;;;;;;;;;;6236023;28;20049;-85
2023/10/07 16:46:29;;;;;;;6.78;3.83;;;;;;;;;;6221717;28;20030;-84
2023/10/07 16:49:31;;;;;;;8.80;3.47;;;;;;;;;;6222779;28;20050;-85
2023/10/07 16:52:34;;;;;;;3.65;2.72;;;;;;;;;;6223034;28;20096;-84
2023/10/07 16:55:38;;;;;;;6.28;3.25;;;;;;;;;;6232811;28;20046;-84
2023/10/07 16:58:42;;;;;;;6.20;3.53;;;;;;;;;;6217917;28;20045;-85
2023/10/07 17:01:45;;;;;;;5.45;2.97;;;;;;;;;;6198302;28;20046;-84
2023/10/07 17:04:47;;;;;;;5.85;3.20;;;;;;;;;;6229335;28;20487;-83
2023/10/07 17:07:48;;;;;;;7.00;3.67;;;;;;;;;;6205737;28;20427;-84
2023/10/07 17:10:53;;;;;;;7.30;3.47;;;;;;;;;;6215852;28;20045;-84
2023/10/07 17:13:56;;;;;;;5.00;3.30;;;;;;;;;;6218966;28;20069;-84
2023/10/07 17:16:58;;;;;;;6.47;3.30;;;;;;;;;;6230692;28;20050;-85
2023/10/07 17:20:06;;;;;;;6.77;3.90;;;;;;;;;;6203294;28;20050;-83
2023/10/07 17:23:09;;;;;;;6.18;3.47;;;;;;;;;;6235875;28;20465;-86
2023/10/07 17:26:11;;;;;;;;;;;;;;;;;;6206577;28;20041;-86
2023/10/07 17:29:13;;;;;;;5.60;3.10;;;;;;;;;;6219371;28;19980;-83
2023/10/07 17:32:16;;;;;;;5.77;3.23;;;;;;;;;;6207104;28;20050;-84
2023/10/07 17:35:18;;;;;;;6.97;2.80;;;;;;;;;;6218769;28;20696;-85
2023/10/07 17:38:20;;;;;;;8.02;2.90;;;;;;;;;;6222351;28;20038;-85
2023/10/07 17:41:22;;;;;;;6.80;3.30;;;;;;;;;;6208103;28;20053;-85
2023/10/07 17:44:24;;;;;;;7.00;3.03;;;;;;;;;;6209788;28;20144;-85
2023/10/07 17:47:26;;;;;;;6.17;3.40;;;;;;;;;;6220043;28;20440;-85
2023/10/07 17:50:29;;;;;;;7.22;3.40;;;;;;;;;;6208267;28;20050;-85
2023/10/07 17:53:32;;;;;;;6.70;2.92;;;;;;;;;;6217957;28;20050;-85
2023/10/07 17:56:34;;;;;;;5.93;3.30;;;;;;;;;;6207435;28;20435;-85
2023/10/07 17:59:36;;;;;;;9.73;3.30;;;;;;;;;;6208699;28;20115;-85
2023/10/07 18:02:38;;;;;;;6.63;3.13;;;;;;;;;;6217926;28;20819;-85
2023/10/07 18:05:40;;;;;;;5.60;3.30;;;;;;;;;;6220139;28;20046;-84
2023/10/07 18:08:43;;;;;;;6.50;3.67;;;;;;;;;;6215872;28;20049;-84
2023/10/07 18:11:44;;;;;;;4.63;3.25;;;;;;;;;;6204868;28;20046;-86
2023/10/07 18:14:46;;;;;;;4.72;2.92;;;;;;;;;;6209615;28;20049;-86
2023/10/07 18:17:48;;;;;;;5.68;4.00;;;;;;;;;;6219920;28;20045;-85
2023/10/07 18:20:54;;;;;;;7.47;4.70;;;;;;;;;;6192881;28;20050;-84
2023/10/07 18:23:55;;;;;;;6.57;3.83;;;;;;;;;;6197245;28;20504;-84
2023/10/07 18:26:58;;;;;;;10.82;5.60;;;;;;;;;;6221493;28;20057;-86
2023/10/07 18:30:01;;;;;;;;;;;;;;;;;;6224758;28;20081;-83
2023/10/07 18:33:05;;;;;;;6.82;3.95;;;;;;;;;;6222052;28;20004;-85
2023/10/07 18:36:06;;;;;;;5.57;3.38;;;;;;;;;;6209838;28;20121;-84
2023/10/07 18:39:13;;;;;;;9.60;5.90;;;;;;;;;;6213782;28;20132;-83
2023/10/07 18:42:15;;;;;;;7.43;4.53;;;;;;;;;;6231281;28;20053;-86
2023/10/07 18:45:16;;;;;;;6.63;4.50;;;;;;;;;;6224793;28;20056;-84
2023/10/07 18:48:18;;;;;;;6.32;3.95;;;;;;;;;;6208480;28;20046;-84
2023/10/07 18:51:20;;;;;;;6.45;3.78;;;;;;;;;;6210432;28;21742;-86
2023/10/07 18:54:22;;;;;;;7.70;3.92;;;;;;;;;;6206413;28;20042;-84
2023/10/07 18:57:23;;;;;;;6.22;3.67;;;;;;;;;;6218111;28;20076;-84
2023/10/07 19:00:25;;;;;;;6.88;4.15;;;;;;;;;;6216851;28;20049;-83
2023/10/07 19:03:28;;;;;;;6.20;3.55;;;;;;;;;;6220081;28;20164;-83
2023/10/07 19:06:29;;;;;;;7.60;3.75;;;;;;;;;;6202735;28;20128;-84
2023/10/07 19:09:35;;;;;;;6.13;3.72;;;;;;;;;;6207301;28;20056;-86
2023/10/07 19:12:36;;;;;;;7.78;3.50;;;;;;;;;;6210161;28;20046;-84